sensor_id;sensor_type;location;lat;lon;timestamp;P1;durP1;ratioP1;P2;durP2;ratioP2
12784;SDS011;6456;42.680;23.260;2023-04-25T00:00:52;4.87;;;2.20;;
12784;SDS011;6456;42.680;23.260;2023-04-25T00:03:22;4.30;;;2.30;;
12784;SDS011;6456;42.680;23.260;2023-04-25T00:05:50;2.77;;;2.57;;
12784;SDS011;6456;42.680;23.260;2023-04-25T00:08:17;3.27;;;3.07;;
12784;SDS011;6456;42.680;23.260;2023-04-25T00:10:45;3.13;;;2.73;;
12784;SDS011;6456;42.680;23.260;2023-04-25T00:13:13;7.03;;;3.33;;
12784;SDS011;6456;42.680;23.260;2023-04-25T00:15:42;3.47;;;3.17;;
12784;SDS011;6456;42.680;23.260;2023-04-25T00:18:09;4.33;;;3.30;;
12784;SDS011;6456;42.680;23.260;2023-04-25T00:20:36;3.80;;;3.40;;
12784;SDS011;6456;42.680;23.260;2023-04-25T00:23:03;3.30;;;3.00;;
12784;SDS011;6456;42.680;23.260;2023-04-25T00:25:30;2.90;;;2.63;;
12784;SDS011;6456;42.680;23.260;2023-04-25T00:27:58;3.57;;;3.27;;
12784;SDS011;6456;42.680;23.260;2023-04-25T00:30:25;5.20;;;3.20;;
12784;SDS011;6456;42.680;23.260;2023-04-25T00:32:52;3.73;;;2.77;;
12784;SDS011;6456;42.680;23.260;2023-04-25T00:35:18;3.57;;;2.90;;
12784;SDS011;6456;42.680;23.260;2023-04-25T00:37:46;3.40;;;2.40;;
12784;SDS011;6456;42.680;23.260;2023-04-25T00:40:13;2.53;;;2.10;;
12784;SDS011;6456;42.680;23.260;2023-04-25T00:42:39;3.47;;;1.93;;
12784;SDS011;6456;42.680;23.260;2023-04-25T00:45:09;3.30;;;2.17;;
12784;SDS011;6456;42.680;23.260;2023-04-25T00:47:40;1.97;;;1.40;;
12784;SDS011;6456;42.680;23.260;2023-04-25T00:50:08;1.90;;;1.80;;
12784;SDS011;6456;42.680;23.260;2023-04-25T00:52:35;1.70;;;1.60;;
12784;SDS011;6456;42.680;23.260;2023-04-25T00:55:21;2.00;;;1.67;;
12784;SDS011;6456;42.680;23.260;2023-04-25T00:57:48;1.90;;;1.70;;
12784;SDS011;6456;42.680;23.260;2023-04-25T01:00:18;1.60;;;1.50;;
12784;SDS011;6456;42.680;23.260;2023-04-25T01:02:45;1.50;;;1.40;;
12784;SDS011;6456;42.680;23.260;2023-04-25T01:05:13;1.17;;;1.07;;
12784;SDS011;6456;42.680;23.260;2023-04-25T01:07:40;1.83;;;1.37;;
12784;SDS011;6456;42.680;23.260;2023-04-25T01:10:07;2.23;;;1.63;;
12784;SDS011;6456;42.680;23.260;2023-04-25T01:12:35;2.30;;;2.10;;
12784;SDS011;6456;42.680;23.260;2023-04-25T01:15:02;3.10;;;2.20;;
12784;SDS011;6456;42.680;23.260;2023-04-25T01:17:31;3.43;;;2.70;;
12784;SDS011;6456;42.680;23.260;2023-04-25T01:19:58;3.23;;;2.93;;
12784;SDS011;6456;42.680;23.260;2023-04-25T01:22:27;3.43;;;2.67;;
12784;SDS011;6456;42.680;23.260;2023-04-25T01:24:54;3.03;;;2.73;;
12784;SDS011;6456;42.680;23.260;2023-04-25T01:27:21;2.87;;;2.50;;
12784;SDS011;6456;42.680;23.260;2023-04-25T01:29:48;3.07;;;2.87;;
12784;SDS011;6456;42.680;23.260;2023-04-25T01:32:16;3.30;;;2.70;;
12784;SDS011;6456;42.680;23.260;2023-04-25T01:34:44;3.40;;;2.93;;
12784;SDS011;6456;42.680;23.260;2023-04-25T01:37:11;2.97;;;2.73;;
12784;SDS011;6456;42.680;23.260;2023-04-25T01:39:39;2.87;;;2.43;;
12784;SDS011;6456;42.680;23.260;2023-04-25T01:42:07;3.83;;;1.90;;
12784;SDS011;6456;42.680;23.260;2023-04-25T01:44:34;1.70;;;1.60;;
12784;SDS011;6456;42.680;23.260;2023-04-25T01:47:01;3.27;;;1.83;;
12784;SDS011;6456;42.680;23.260;2023-04-25T01:49:28;1.70;;;1.60;;
12784;SDS011;6456;42.680;23.260;2023-04-25T01:51:55;2.80;;;1.53;;
12784;SDS011;6456;42.680;23.260;2023-04-25T01:54:22;2.00;;;1.80;;
12784;SDS011;6456;42.680;23.260;2023-04-25T01:56:51;1.70;;;1.60;;
12784;SDS011;6456;42.680;23.260;2023-04-25T01:59:18;2.10;;;1.60;;
12784;SDS011;6456;42.680;23.260;2023-04-25T02:01:46;2.13;;;2.00;;
12784;SDS011;6456;42.680;23.260;2023-04-25T02:04:13;2.27;;;2.07;;
12784;SDS011;6456;42.680;23.260;2023-04-25T02:06:40;3.20;;;2.30;;
12784;SDS011;6456;42.680;23.260;2023-04-25T02:09:07;2.50;;;2.30;;
12784;SDS011;6456;42.680;23.260;2023-04-25T02:11:34;2.33;;;2.13;;
12784;SDS011;6456;42.680;23.260;2023-04-25T02:14:02;3.70;;;2.17;;
12784;SDS011;6456;42.680;23.260;2023-04-25T02:16:29;2.50;;;2.30;;
12784;SDS011;6456;42.680;23.260;2023-04-25T02:18:56;3.17;;;2.50;;
12784;SDS011;6456;42.680;23.260;2023-04-25T02:21:24;3.20;;;2.90;;
12784;SDS011;6456;42.680;23.260;2023-04-25T02:23:52;3.03;;;2.73;;
12784;SDS011;6456;42.680;23.260;2023-04-25T02:26:19;3.50;;;3.20;;
12784;SDS011;6456;42.680;23.260;2023-04-25T02:28:46;3.63;;;3.30;;
12784;SDS011;6456;42.680;23.260;2023-04-25T02:31:14;6.90;;;4.73;;
12784;SDS011;6456;42.680;23.260;2023-04-25T02:33:41;4.00;;;3.03;;
12784;SDS011;6456;42.680;23.260;2023-04-25T02:36:09;3.90;;;3.57;;
12784;SDS011;6456;42.680;23.260;2023-04-25T02:38:36;5.23;;;3.83;;
12784;SDS011;6456;42.680;23.260;2023-04-25T02:41:04;3.50;;;3.20;;
12784;SDS011;6456;42.680;23.260;2023-04-25T02:43:31;5.07;;;3.90;;
12784;SDS011;6456;42.680;23.260;2023-04-25T02:45:58;4.03;;;3.63;;
12784;SDS011;6456;42.680;23.260;2023-04-25T02:48:26;4.47;;;4.07;;
12784;SDS011;6456;42.680;23.260;2023-04-25T02:50:54;4.47;;;4.07;;
12784;SDS011;6456;42.680;23.260;2023-04-25T02:53:21;4.57;;;3.70;;
12784;SDS011;6456;42.680;23.260;2023-04-25T02:55:48;4.33;;;3.23;;
12784;SDS011;6456;42.680;23.260;2023-04-25T02:58:17;3.73;;;3.43;;
12784;SDS011;6456;42.680;23.260;2023-04-25T03:00:44;3.90;;;3.43;;
12784;SDS011;6456;42.680;23.260;2023-04-25T03:03:11;4.70;;;4.30;;
12784;SDS011;6456;42.680;23.260;2023-04-25T03:05:39;5.03;;;4.53;;
12784;SDS011;6456;42.680;23.260;2023-04-25T03:08:06;4.20;;;3.90;;
12784;SDS011;6456;42.680;23.260;2023-04-25T03:10:33;4.83;;;4.43;;
12784;SDS011;6456;42.680;23.260;2023-04-25T03:13:00;4.70;;;4.30;;
12784;SDS011;6456;42.680;23.260;2023-04-25T03:15:27;5.30;;;4.80;;
12784;SDS011;6456;42.680;23.260;2023-04-25T03:17:54;5.23;;;4.80;;
12784;SDS011;6456;42.680;23.260;2023-04-25T03:20:21;6.23;;;5.10;;
12784;SDS011;6456;42.680;23.260;2023-04-25T03:22:50;6.77;;;5.07;;
12784;SDS011;6456;42.680;23.260;2023-04-25T03:25:18;6.70;;;5.53;;
12784;SDS011;6456;42.680;23.260;2023-04-25T03:27:45;6.20;;;5.60;;
12784;SDS011;6456;42.680;23.260;2023-04-25T03:30:12;7.17;;;6.47;;
12784;SDS011;6456;42.680;23.260;2023-04-25T03:32:39;7.47;;;6.77;;
12784;SDS011;6456;42.680;23.260;2023-04-25T03:35:07;6.83;;;6.17;;
12784;SDS011;6456;42.680;23.260;2023-04-25T03:37:35;7.53;;;6.47;;
12784;SDS011;6456;42.680;23.260;2023-04-25T03:40:03;7.40;;;6.70;;
12784;SDS011;6456;42.680;23.260;2023-04-25T03:42:31;6.67;;;6.07;;
12784;SDS011;6456;42.680;23.260;2023-04-25T03:44:58;6.93;;;6.33;;
12784;SDS011;6456;42.680;23.260;2023-04-25T03:47:25;8.10;;;6.63;;
12784;SDS011;6456;42.680;23.260;2023-04-25T03:49:52;7.37;;;6.67;;
12784;SDS011;6456;42.680;23.260;2023-04-25T03:52:19;7.17;;;6.50;;
12784;SDS011;6456;42.680;23.260;2023-04-25T03:54:46;9.23;;;8.33;;
12784;SDS011;6456;42.680;23.260;2023-04-25T03:57:14;8.67;;;7.80;;
12784;SDS011;6456;42.680;23.260;2023-04-25T03:59:41;9.73;;;8.70;;
12784;SDS011;6456;42.680;23.260;2023-04-25T04:02:08;9.27;;;8.33;;
12784;SDS011;6456;42.680;23.260;2023-04-25T04:04:34;10.10;;;9.00;;
12784;SDS011;6456;42.680;23.260;2023-04-25T04:07:01;9.27;;;8.37;;
12784;SDS011;6456;42.680;23.260;2023-04-25T04:09:28;8.03;;;7.30;;
12784;SDS011;6456;42.680;23.260;2023-04-25T04:11:55;9.00;;;8.07;;
12784;SDS011;6456;42.680;23.260;2023-04-25T04:14:23;9.73;;;8.77;;
12784;SDS011;6456;42.680;23.260;2023-04-25T04:16:50;9.37;;;8.23;;
12784;SDS011;6456;42.680;23.260;2023-04-25T04:19:17;8.80;;;7.67;;
12784;SDS011;6456;42.680;23.260;2023-04-25T04:21:44;9.10;;;8.20;;
12784;SDS011;6456;42.680;23.260;2023-04-25T04:24:11;9.37;;;8.40;;
12784;SDS011;6456;42.680;23.260;2023-04-25T04:26:38;9.40;;;8.23;;
12784;SDS011;6456;42.680;23.260;2023-04-25T04:29:05;10.73;;;8.60;;
12784;SDS011;6456;42.680;23.260;2023-04-25T04:31:33;10.43;;;8.20;;
12784;SDS011;6456;42.680;23.260;2023-04-25T04:34:00;9.07;;;8.17;;
12784;SDS011;6456;42.680;23.260;2023-04-25T04:36:28;8.63;;;7.73;;
12784;SDS011;6456;42.680;23.260;2023-04-25T04:38:55;8.13;;;7.33;;
12784;SDS011;6456;42.680;23.260;2023-04-25T04:41:22;9.47;;;7.10;;
12784;SDS011;6456;42.680;23.260;2023-04-25T04:43:49;10.30;;;7.37;;
12784;SDS011;6456;42.680;23.260;2023-04-25T04:46:15;7.70;;;6.97;;
12784;SDS011;6456;42.680;23.260;2023-04-25T04:48:44;8.07;;;7.30;;
12784;SDS011;6456;42.680;23.260;2023-04-25T04:51:11;8.67;;;7.80;;
12784;SDS011;6456;42.680;23.260;2023-04-25T04:53:38;10.40;;;9.40;;
12784;SDS011;6456;42.680;23.260;2023-04-25T04:56:05;10.23;;;9.23;;
12784;SDS011;6456;42.680;23.260;2023-04-25T04:58:32;10.40;;;9.30;;
12784;SDS011;6456;42.680;23.260;2023-04-25T05:01:00;12.47;;;11.17;;
12784;SDS011;6456;42.680;23.260;2023-04-25T05:03:27;13.87;;;12.57;;
12784;SDS011;6456;42.680;23.260;2023-04-25T05:05:55;11.93;;;10.73;;
12784;SDS011;6456;42.680;23.260;2023-04-25T05:08:22;12.47;;;10.40;;
12784;SDS011;6456;42.680;23.260;2023-04-25T05:10:48;11.10;;;9.67;;
12784;SDS011;6456;42.680;23.260;2023-04-25T05:13:15;10.80;;;9.57;;
12784;SDS011;6456;42.680;23.260;2023-04-25T05:15:42;11.70;;;10.50;;
12784;SDS011;6456;42.680;23.260;2023-04-25T05:18:09;16.43;;;11.40;;
12784;SDS011;6456;42.680;23.260;2023-04-25T05:20:36;12.63;;;10.00;;
12784;SDS011;6456;42.680;23.260;2023-04-25T05:23:04;10.23;;;8.63;;
12784;SDS011;6456;42.680;23.260;2023-04-25T05:25:31;10.50;;;9.50;;
12784;SDS011;6456;42.680;23.260;2023-04-25T05:27:58;11.40;;;9.63;;
12784;SDS011;6456;42.680;23.260;2023-04-25T05:30:25;10.07;;;9.07;;
12784;SDS011;6456;42.680;23.260;2023-04-25T05:32:52;13.33;;;12.00;;
12784;SDS011;6456;42.680;23.260;2023-04-25T05:35:19;16.93;;;15.30;;
12784;SDS011;6456;42.680;23.260;2023-04-25T05:37:46;16.63;;;14.97;;
12784;SDS011;6456;42.680;23.260;2023-04-25T05:40:14;13.23;;;10.93;;
12784;SDS011;6456;42.680;23.260;2023-04-25T05:42:41;12.33;;;10.70;;
12784;SDS011;6456;42.680;23.260;2023-04-25T05:45:08;11.00;;;9.90;;
12784;SDS011;6456;42.680;23.260;2023-04-25T05:47:35;13.17;;;8.93;;
12784;SDS011;6456;42.680;23.260;2023-04-25T05:50:02;10.50;;;8.47;;
12784;SDS011;6456;42.680;23.260;2023-04-25T05:52:29;11.30;;;7.47;;
12784;SDS011;6456;42.680;23.260;2023-04-25T05:54:56;7.77;;;6.97;;
12784;SDS011;6456;42.680;23.260;2023-04-25T05:57:25;10.73;;;8.40;;
12784;SDS011;6456;42.680;23.260;2023-04-25T05:59:52;11.17;;;8.73;;
12784;SDS011;6456;42.680;23.260;2023-04-25T06:02:20;10.80;;;7.97;;
12784;SDS011;6456;42.680;23.260;2023-04-25T06:04:47;9.10;;;7.97;;
12784;SDS011;6456;42.680;23.260;2023-04-25T06:07:15;11.03;;;8.47;;
12784;SDS011;6456;42.680;23.260;2023-04-25T06:09:42;9.50;;;8.33;;
12784;SDS011;6456;42.680;23.260;2023-04-25T06:12:09;11.17;;;8.67;;
12784;SDS011;6456;42.680;23.260;2023-04-25T06:14:37;9.43;;;8.43;;
12784;SDS011;6456;42.680;23.260;2023-04-25T06:17:04;8.63;;;7.73;;
12784;SDS011;6456;42.680;23.260;2023-04-25T06:19:33;9.40;;;8.50;;
12784;SDS011;6456;42.680;23.260;2023-04-25T06:22:00;9.10;;;8.20;;
12784;SDS011;6456;42.680;23.260;2023-04-25T06:24:27;8.07;;;7.27;;
12784;SDS011;6456;42.680;23.260;2023-04-25T06:26:54;10.17;;;7.60;;
12784;SDS011;6456;42.680;23.260;2023-04-25T06:29:21;11.70;;;8.00;;
12784;SDS011;6456;42.680;23.260;2023-04-25T06:31:50;9.33;;;8.37;;
12784;SDS011;6456;42.680;23.260;2023-04-25T06:34:16;11.90;;;8.70;;
12784;SDS011;6456;42.680;23.260;2023-04-25T06:36:43;10.93;;;9.70;;
12784;SDS011;6456;42.680;23.260;2023-04-25T06:39:10;10.73;;;9.37;;
12784;SDS011;6456;42.680;23.260;2023-04-25T06:41:37;11.63;;;9.33;;
12784;SDS011;6456;42.680;23.260;2023-04-25T06:44:04;12.43;;;10.70;;
12784;SDS011;6456;42.680;23.260;2023-04-25T06:46:31;15.03;;;10.30;;
12784;SDS011;6456;42.680;23.260;2023-04-25T06:48:59;12.03;;;10.43;;
12784;SDS011;6456;42.680;23.260;2023-04-25T06:51:26;11.77;;;10.57;;
12784;SDS011;6456;42.680;23.260;2023-04-25T06:53:54;15.07;;;11.00;;
12784;SDS011;6456;42.680;23.260;2023-04-25T06:56:21;13.70;;;10.33;;
12784;SDS011;6456;42.680;23.260;2023-04-25T06:58:48;12.30;;;10.87;;
12784;SDS011;6456;42.680;23.260;2023-04-25T07:01:15;10.90;;;9.87;;
12784;SDS011;6456;42.680;23.260;2023-04-25T07:03:42;13.20;;;10.23;;
12784;SDS011;6456;42.680;23.260;2023-04-25T07:06:10;10.30;;;9.20;;
12784;SDS011;6456;42.680;23.260;2023-04-25T07:08:37;10.30;;;9.30;;
12784;SDS011;6456;42.680;23.260;2023-04-25T07:11:03;9.57;;;7.73;;
12784;SDS011;6456;42.680;23.260;2023-04-25T07:13:30;10.13;;;7.70;;
12784;SDS011;6456;42.680;23.260;2023-04-25T07:15:57;9.97;;;7.83;;
12784;SDS011;6456;42.680;23.260;2023-04-25T07:18:24;8.77;;;7.80;;
12784;SDS011;6456;42.680;23.260;2023-04-25T07:20:51;11.13;;;7.57;;
12784;SDS011;6456;42.680;23.260;2023-04-25T07:23:19;7.90;;;7.13;;
12784;SDS011;6456;42.680;23.260;2023-04-25T07:25:46;9.37;;;6.73;;
12784;SDS011;6456;42.680;23.260;2023-04-25T07:28:13;7.93;;;6.87;;
12784;SDS011;6456;42.680;23.260;2023-04-25T07:30:40;9.43;;;7.37;;
12784;SDS011;6456;42.680;23.260;2023-04-25T07:33:07;8.73;;;7.43;;
12784;SDS011;6456;42.680;23.260;2023-04-25T07:35:33;7.93;;;6.80;;
12784;SDS011;6456;42.680;23.260;2023-04-25T07:38:01;9.27;;;7.07;;
12784;SDS011;6456;42.680;23.260;2023-04-25T07:40:29;7.77;;;7.00;;
12784;SDS011;6456;42.680;23.260;2023-04-25T07:42:56;9.90;;;7.53;;
12784;SDS011;6456;42.680;23.260;2023-04-25T07:45:23;8.90;;;7.60;;
12784;SDS011;6456;42.680;23.260;2023-04-25T07:47:50;7.73;;;6.73;;
12784;SDS011;6456;42.680;23.260;2023-04-25T07:50:16;6.60;;;6.00;;
12784;SDS011;6456;42.680;23.260;2023-04-25T07:52:43;10.27;;;6.67;;
12784;SDS011;6456;42.680;23.260;2023-04-25T07:55:10;9.13;;;7.10;;
12784;SDS011;6456;42.680;23.260;2023-04-25T07:57:38;6.50;;;5.90;;
12784;SDS011;6456;42.680;23.260;2023-04-25T08:00:05;8.73;;;5.40;;
12784;SDS011;6456;42.680;23.260;2023-04-25T08:02:37;7.97;;;6.23;;
12784;SDS011;6456;42.680;23.260;2023-04-25T08:05:04;7.93;;;6.40;;
12784;SDS011;6456;42.680;23.260;2023-04-25T08:07:33;11.17;;;6.40;;
12784;SDS011;6456;42.680;23.260;2023-04-25T08:10:00;5.80;;;5.23;;
12784;SDS011;6456;42.680;23.260;2023-04-25T08:12:26;5.20;;;3.53;;
12784;SDS011;6456;42.680;23.260;2023-04-25T08:14:55;2.97;;;2.07;;
12784;SDS011;6456;42.680;23.260;2023-04-25T08:17:21;2.30;;;2.20;;
12784;SDS011;6456;42.680;23.260;2023-04-25T08:19:48;4.27;;;3.87;;
12784;SDS011;6456;42.680;23.260;2023-04-25T08:22:15;2.27;;;1.77;;
12784;SDS011;6456;42.680;23.260;2023-04-25T08:24:42;4.63;;;1.90;;
12784;SDS011;6456;42.680;23.260;2023-04-25T08:27:09;1.97;;;1.70;;
12784;SDS011;6456;42.680;23.260;2023-04-25T08:29:36;3.03;;;2.00;;
12784;SDS011;6456;42.680;23.260;2023-04-25T08:32:04;2.27;;;2.00;;
12784;SDS011;6456;42.680;23.260;2023-04-25T08:34:31;1.90;;;1.80;;
12784;SDS011;6456;42.680;23.260;2023-04-25T08:36:58;1.80;;;1.70;;
12784;SDS011;6456;42.680;23.260;2023-04-25T08:39:24;2.23;;;1.80;;
12784;SDS011;6456;42.680;23.260;2023-04-25T08:41:51;3.17;;;2.17;;
12784;SDS011;6456;42.680;23.260;2023-04-25T08:44:19;1.90;;;1.80;;
12784;SDS011;6456;42.680;23.260;2023-04-25T08:46:47;3.60;;;2.10;;
12784;SDS011;6456;42.680;23.260;2023-04-25T08:49:17;5.17;;;3.30;;
12784;SDS011;6456;42.680;23.260;2023-04-25T08:51:45;5.67;;;4.33;;
12784;SDS011;6456;42.680;23.260;2023-04-25T08:54:14;4.93;;;4.30;;
12784;SDS011;6456;42.680;23.260;2023-04-25T08:56:43;6.10;;;5.23;;
12784;SDS011;6456;42.680;23.260;2023-04-25T08:59:11;5.37;;;4.23;;
12784;SDS011;6456;42.680;23.260;2023-04-25T09:01:38;2.23;;;1.30;;
12784;SDS011;6456;42.680;23.260;2023-04-25T09:04:05;3.70;;;2.10;;
12784;SDS011;6456;42.680;23.260;2023-04-25T09:06:33;2.20;;;2.00;;
12784;SDS011;6456;42.680;23.260;2023-04-25T09:09:02;2.50;;;2.30;;
12784;SDS011;6456;42.680;23.260;2023-04-25T09:11:30;1.60;;;1.40;;
12784;SDS011;6456;42.680;23.260;2023-04-25T09:14:09;1.70;;;1.60;;
12784;SDS011;6456;42.680;23.260;2023-04-25T09:16:52;1.63;;;1.33;;
12784;SDS011;6456;42.680;23.260;2023-04-25T09:19:25;1.47;;;1.23;;
12784;SDS011;6456;42.680;23.260;2023-04-25T09:21:54;1.10;;;1.00;;
12784;SDS011;6456;42.680;23.260;2023-04-25T09:24:29;3.00;;;1.10;;
12784;SDS011;6456;42.680;23.260;2023-04-25T09:27:00;1.37;;;1.27;;
12784;SDS011;6456;42.680;23.260;2023-04-25T09:29:29;1.07;;;0.97;;
12784;SDS011;6456;42.680;23.260;2023-04-25T09:32:10;1.13;;;1.00;;
12784;SDS011;6456;42.680;23.260;2023-04-25T09:34:39;0.90;;;0.90;;
12784;SDS011;6456;42.680;23.260;2023-04-25T09:37:09;2.00;;;0.93;;
12784;SDS011;6456;42.680;23.260;2023-04-25T09:39:36;0.90;;;0.90;;
12784;SDS011;6456;42.680;23.260;2023-04-25T09:42:03;1.80;;;0.90;;
12784;SDS011;6456;42.680;23.260;2023-04-25T09:44:31;1.30;;;0.90;;
12784;SDS011;6456;42.680;23.260;2023-04-25T09:46:58;1.23;;;0.70;;
12784;SDS011;6456;42.680;23.260;2023-04-25T09:49:24;0.80;;;0.80;;
12784;SDS011;6456;42.680;23.260;2023-04-25T09:51:55;1.60;;;0.90;;
12784;SDS011;6456;42.680;23.260;2023-04-25T09:54:24;2.37;;;2.00;;
12784;SDS011;6456;42.680;23.260;2023-04-25T09:56:52;5.50;;;2.93;;
12784;SDS011;6456;42.680;23.260;2023-04-25T09:59:20;2.93;;;2.67;;
12784;SDS011;6456;42.680;23.260;2023-04-25T10:01:48;2.70;;;2.50;;
12784;SDS011;6456;42.680;23.260;2023-04-25T10:04:18;2.33;;;2.13;;
12784;SDS011;6456;42.680;23.260;2023-04-25T10:06:49;3.53;;;2.33;;
12784;SDS011;6456;42.680;23.260;2023-04-25T10:09:18;2.20;;;2.00;;
12784;SDS011;6456;42.680;23.260;2023-04-25T10:11:49;1.77;;;1.20;;
12784;SDS011;6456;42.680;23.260;2023-04-25T10:14:16;1.30;;;0.80;;
12784;SDS011;6456;42.680;23.260;2023-04-25T10:16:45;2.00;;;0.97;;
12784;SDS011;6456;42.680;23.260;2023-04-25T10:19:13;0.70;;;0.70;;
12784;SDS011;6456;42.680;23.260;2023-04-25T10:21:43;0.80;;;0.80;;
12784;SDS011;6456;42.680;23.260;2023-04-25T10:24:14;0.80;;;0.80;;
12784;SDS011;6456;42.680;23.260;2023-04-25T10:26:41;0.70;;;0.70;;
12784;SDS011;6456;42.680;23.260;2023-04-25T10:29:10;2.80;;;0.90;;
12784;SDS011;6456;42.680;23.260;2023-04-25T10:31:44;1.13;;;0.60;;
12784;SDS011;6456;42.680;23.260;2023-04-25T10:34:11;0.90;;;0.80;;
12784;SDS011;6456;42.680;23.260;2023-04-25T10:36:38;0.80;;;0.80;;
12784;SDS011;6456;42.680;23.260;2023-04-25T10:39:07;1.57;;;0.80;;
12784;SDS011;6456;42.680;23.260;2023-04-25T10:44:22;2.17;;;0.73;;
12784;SDS011;6456;42.680;23.260;2023-04-25T10:46:49;0.60;;;0.60;;
12784;SDS011;6456;42.680;23.260;2023-04-25T10:52:12;1.07;;;0.60;;
12784;SDS011;6456;42.680;23.260;2023-04-25T10:54:51;0.63;;;0.63;;
12784;SDS011;6456;42.680;23.260;2023-04-25T10:57:32;1.57;;;0.80;;
12784;SDS011;6456;42.680;23.260;2023-04-25T11:00:08;0.60;;;0.60;;
12784;SDS011;6456;42.680;23.260;2023-04-25T11:02:38;0.70;;;0.70;;
12784;SDS011;6456;42.680;23.260;2023-04-25T11:05:08;0.77;;;0.60;;
12784;SDS011;6456;42.680;23.260;2023-04-25T11:07:39;0.80;;;0.80;;
12784;SDS011;6456;42.680;23.260;2023-04-25T11:10:15;0.80;;;0.70;;
12784;SDS011;6456;42.680;23.260;2023-04-25T11:12:41;1.47;;;0.80;;
12784;SDS011;6456;42.680;23.260;2023-04-25T11:15:10;0.83;;;0.80;;
12784;SDS011;6456;42.680;23.260;2023-04-25T11:17:37;0.67;;;0.63;;
12784;SDS011;6456;42.680;23.260;2023-04-25T11:20:06;3.07;;;1.47;;
12784;SDS011;6456;42.680;23.260;2023-04-25T11:22:36;1.20;;;1.00;;
12784;SDS011;6456;42.680;23.260;2023-04-25T11:25:04;1.03;;;0.93;;
12784;SDS011;6456;42.680;23.260;2023-04-25T11:27:42;1.20;;;0.97;;
12784;SDS011;6456;42.680;23.260;2023-04-25T11:30:17;0.73;;;0.73;;
12784;SDS011;6456;42.680;23.260;2023-04-25T11:32:45;0.87;;;0.80;;
12784;SDS011;6456;42.680;23.260;2023-04-25T11:35:12;1.10;;;0.80;;
12784;SDS011;6456;42.680;23.260;2023-04-25T11:37:40;1.23;;;0.80;;
12784;SDS011;6456;42.680;23.260;2023-04-25T11:40:08;1.80;;;1.00;;
12784;SDS011;6456;42.680;23.260;2023-04-25T11:42:36;0.83;;;0.77;;
12784;SDS011;6456;42.680;23.260;2023-04-25T11:45:04;0.77;;;0.77;;
12784;SDS011;6456;42.680;23.260;2023-04-25T11:47:34;2.30;;;0.87;;
12784;SDS011;6456;42.680;23.260;2023-04-25T11:50:01;1.00;;;1.00;;
12784;SDS011;6456;42.680;23.260;2023-04-25T11:52:36;1.00;;;0.90;;
12784;SDS011;6456;42.680;23.260;2023-04-25T11:55:08;1.90;;;0.97;;
12784;SDS011;6456;42.680;23.260;2023-04-25T11:57:37;1.33;;;0.90;;
12784;SDS011;6456;42.680;23.260;2023-04-25T12:00:09;1.23;;;1.00;;
12784;SDS011;6456;42.680;23.260;2023-04-25T12:02:43;1.30;;;1.20;;
12784;SDS011;6456;42.680;23.260;2023-04-25T12:05:11;2.67;;;1.40;;
12784;SDS011;6456;42.680;23.260;2023-04-25T12:07:40;1.30;;;1.20;;
12784;SDS011;6456;42.680;23.260;2023-04-25T12:10:08;1.37;;;1.10;;
12784;SDS011;6456;42.680;23.260;2023-04-25T12:12:36;1.43;;;1.10;;
12784;SDS011;6456;42.680;23.260;2023-04-25T12:15:11;1.33;;;1.10;;
12784;SDS011;6456;42.680;23.260;2023-04-25T12:17:40;1.33;;;1.23;;
12784;SDS011;6456;42.680;23.260;2023-04-25T12:20:12;1.20;;;1.00;;
12784;SDS011;6456;42.680;23.260;2023-04-25T12:22:40;1.60;;;1.30;;
12784;SDS011;6456;42.680;23.260;2023-04-25T12:25:09;0.60;;;0.60;;
12784;SDS011;6456;42.680;23.260;2023-04-25T12:27:37;1.07;;;0.93;;
12784;SDS011;6456;42.680;23.260;2023-04-25T12:30:05;2.47;;;1.03;;
12784;SDS011;6456;42.680;23.260;2023-04-25T12:32:33;0.90;;;0.90;;
12784;SDS011;6456;42.680;23.260;2023-04-25T12:35:02;1.63;;;1.10;;
12784;SDS011;6456;42.680;23.260;2023-04-25T12:37:29;0.73;;;0.67;;
12784;SDS011;6456;42.680;23.260;2023-04-25T12:39:56;1.03;;;0.70;;
12784;SDS011;6456;42.680;23.260;2023-04-25T12:42:23;2.63;;;1.00;;
12784;SDS011;6456;42.680;23.260;2023-04-25T12:44:50;0.90;;;0.73;;
12784;SDS011;6456;42.680;23.260;2023-04-25T12:47:17;1.17;;;0.70;;
12784;SDS011;6456;42.680;23.260;2023-04-25T12:49:43;1.17;;;0.90;;
12784;SDS011;6456;42.680;23.260;2023-04-25T12:52:12;0.70;;;0.70;;
12784;SDS011;6456;42.680;23.260;2023-04-25T12:54:38;0.87;;;0.87;;
12784;SDS011;6456;42.680;23.260;2023-04-25T12:57:05;1.83;;;1.10;;
12784;SDS011;6456;42.680;23.260;2023-04-25T12:59:32;1.53;;;1.00;;
12784;SDS011;6456;42.680;23.260;2023-04-25T13:01:59;2.00;;;1.10;;
12784;SDS011;6456;42.680;23.260;2023-04-25T13:04:26;3.20;;;1.33;;
12784;SDS011;6456;42.680;23.260;2023-04-25T13:06:53;2.50;;;1.50;;
12784;SDS011;6456;42.680;23.260;2023-04-25T13:09:21;4.47;;;1.90;;
12784;SDS011;6456;42.680;23.260;2023-04-25T13:11:48;1.70;;;1.43;;
12784;SDS011;6456;42.680;23.260;2023-04-25T13:14:15;4.27;;;3.60;;
12784;SDS011;6456;42.680;23.260;2023-04-25T13:16:41;3.10;;;2.10;;
12784;SDS011;6456;42.680;23.260;2023-04-25T13:19:08;3.03;;;2.17;;
12784;SDS011;6456;42.680;23.260;2023-04-25T13:21:36;4.63;;;2.00;;
12784;SDS011;6456;42.680;23.260;2023-04-25T13:24:03;3.03;;;1.80;;
12784;SDS011;6456;42.680;23.260;2023-04-25T13:26:33;2.37;;;1.67;;
12784;SDS011;6456;42.680;23.260;2023-04-25T13:29:00;2.63;;;1.47;;
12784;SDS011;6456;42.680;23.260;2023-04-25T13:31:28;1.90;;;1.70;;
12784;SDS011;6456;42.680;23.260;2023-04-25T13:33:55;2.07;;;1.83;;
12784;SDS011;6456;42.680;23.260;2023-04-25T13:36:22;1.57;;;1.43;;
12784;SDS011;6456;42.680;23.260;2023-04-25T13:38:49;6.00;;;2.00;;
12784;SDS011;6456;42.680;23.260;2023-04-25T13:41:15;3.93;;;2.60;;
12784;SDS011;6456;42.680;23.260;2023-04-25T13:43:45;5.73;;;2.40;;
12784;SDS011;6456;42.680;23.260;2023-04-25T13:46:13;3.37;;;2.90;;
12784;SDS011;6456;42.680;23.260;2023-04-25T13:48:40;5.20;;;3.73;;
12784;SDS011;6456;42.680;23.260;2023-04-25T13:51:12;5.57;;;3.07;;
12784;SDS011;6456;42.680;23.260;2023-04-25T13:53:40;3.50;;;2.70;;
12784;SDS011;6456;42.680;23.260;2023-04-25T13:56:07;3.90;;;3.00;;
12784;SDS011;6456;42.680;23.260;2023-04-25T13:58:34;4.10;;;2.40;;
12784;SDS011;6456;42.680;23.260;2023-04-25T14:01:02;3.00;;;2.07;;
12784;SDS011;6456;42.680;23.260;2023-04-25T14:03:30;3.40;;;3.10;;
12784;SDS011;6456;42.680;23.260;2023-04-25T14:05:57;3.63;;;3.20;;
12784;SDS011;6456;42.680;23.260;2023-04-25T14:08:23;3.63;;;2.87;;
12784;SDS011;6456;42.680;23.260;2023-04-25T14:10:50;4.67;;;2.40;;
12784;SDS011;6456;42.680;23.260;2023-04-25T14:13:17;2.43;;;1.97;;
12784;SDS011;6456;42.680;23.260;2023-04-25T14:15:44;2.80;;;2.13;;
12784;SDS011;6456;42.680;23.260;2023-04-25T14:18:12;2.03;;;1.83;;
12784;SDS011;6456;42.680;23.260;2023-04-25T14:20:39;1.83;;;1.47;;
12784;SDS011;6456;42.680;23.260;2023-04-25T14:23:06;1.10;;;1.10;;
12784;SDS011;6456;42.680;23.260;2023-04-25T14:25:33;0.83;;;0.73;;
12784;SDS011;6456;42.680;23.260;2023-04-25T14:28:01;0.70;;;0.70;;
12784;SDS011;6456;42.680;23.260;2023-04-25T14:30:28;0.60;;;0.60;;
12784;SDS011;6456;42.680;23.260;2023-04-25T14:32:55;1.67;;;0.90;;
12784;SDS011;6456;42.680;23.260;2023-04-25T14:35:23;0.97;;;0.97;;
12784;SDS011;6456;42.680;23.260;2023-04-25T14:37:50;1.20;;;0.90;;
12784;SDS011;6456;42.680;23.260;2023-04-25T14:40:16;1.30;;;1.13;;
12784;SDS011;6456;42.680;23.260;2023-04-25T14:42:47;1.17;;;1.17;;
12784;SDS011;6456;42.680;23.260;2023-04-25T14:45:17;1.30;;;1.20;;
12784;SDS011;6456;42.680;23.260;2023-04-25T14:47:43;1.60;;;1.33;;
12784;SDS011;6456;42.680;23.260;2023-04-25T14:50:10;0.90;;;0.90;;
12784;SDS011;6456;42.680;23.260;2023-04-25T14:52:39;0.93;;;0.93;;
12784;SDS011;6456;42.680;23.260;2023-04-25T14:55:06;1.20;;;1.13;;